createdAt,value
2018-08-10T00:00:56.988Z,19.60
2018-08-10T00:03:37.116Z,19.50
2018-08-10T00:06:12.594Z,19.40
2018-08-10T00:08:47.913Z,19.40
2018-08-10T00:11:23.786Z,19.40
2018-08-10T00:13:59.130Z,19.30
2018-08-10T00:16:34.423Z,18.70
2018-08-10T00:19:09.913Z,18.10
2018-08-10T00:21:44.723Z,17.90
2018-08-10T00:24:19.615Z,17.70
2018-08-10T00:26:54.334Z,17.80
2018-08-10T00:29:29.480Z,17.80
2018-08-10T00:32:04.258Z,18.10
2018-08-10T00:34:39.590Z,18.00
2018-08-10T00:37:14.352Z,18.30
2018-08-10T00:39:50.089Z,18.50
2018-08-10T00:42:24.936Z,18.30
2018-08-10T00:44:59.911Z,18.40
2018-08-10T00:47:34.767Z,18.40
2018-08-10T00:50:11.114Z,18.20
2018-08-10T00:52:47.410Z,18.40
2018-08-10T00:55:22.036Z,18.20
2018-08-10T00:57:57.833Z,18.30
2018-08-10T01:00:32.701Z,18.30
2018-08-10T01:03:07.881Z,18.30
2018-08-10T01:05:42.881Z,18.10
2018-08-10T01:08:17.826Z,18.10
2018-08-10T01:10:52.730Z,18.20
2018-08-10T01:13:28.042Z,18.30
2018-08-10T01:16:03.026Z,18.30
2018-08-10T01:18:37.841Z,18.30
2018-08-10T01:21:12.484Z,18.20
2018-08-10T01:23:47.549Z,18.20
2018-08-10T01:26:23.450Z,18.20
2018-08-10T01:28:58.571Z,18.20
2018-08-10T01:31:33.635Z,18.30
2018-08-10T01:34:08.743Z,18.30
2018-08-10T01:36:43.799Z,18.30
2018-08-10T01:39:18.942Z,18.30
2018-08-10T01:41:53.893Z,18.20
2018-08-10T01:44:29.709Z,17.90
2018-08-10T01:47:05.030Z,18.00
2018-08-10T01:49:40.054Z,18.00
2018-08-10T01:52:14.651Z,17.90
2018-08-10T01:54:49.323Z,17.90
2018-08-10T01:57:24.268Z,18.00
2018-08-10T01:59:59.350Z,18.10
2018-08-10T02:02:34.342Z,18.20
2018-08-10T02:05:10.873Z,18.20
2018-08-10T02:07:45.604Z,17.80
2018-08-10T02:10:20.751Z,17.70
2018-08-10T02:12:56.926Z,17.80
2018-08-10T02:15:31.904Z,17.60
2018-08-10T02:18:06.745Z,17.60
2018-08-10T02:20:41.569Z,17.90
2018-08-10T02:23:17.177Z,18.10
2018-08-10T02:25:52.617Z,17.90
2018-08-10T02:28:27.461Z,17.80
2018-08-10T02:31:02.652Z,17.80
2018-08-10T02:33:37.671Z,17.60
2018-08-10T02:36:12.572Z,17.60
2018-08-10T02:38:50.396Z,17.30
2018-08-10T02:41:25.131Z,17.60
2018-08-10T02:44:00.107Z,17.50
2018-08-10T02:46:34.925Z,17.40
2018-08-10T02:49:10.501Z,17.50
2018-08-10T02:51:45.381Z,17.50
2018-08-10T02:54:20.421Z,17.50
2018-08-10T02:56:55.958Z,17.40
2018-08-10T02:59:30.866Z,17.60
2018-08-10T03:02:06.553Z,17.60
2018-08-10T03:04:41.379Z,17.60
2018-08-10T03:07:16.346Z,17.20
2018-08-10T03:09:51.290Z,17.10
2018-08-10T03:12:26.512Z,17.20
2018-08-10T03:15:01.374Z,17.10
2018-08-10T03:17:36.285Z,17.20
2018-08-10T03:20:11.517Z,17.20
2018-08-10T03:22:46.299Z,17.20
2018-08-10T03:25:21.233Z,17.40
2018-08-10T03:27:56.426Z,17.40
2018-08-10T03:30:31.697Z,17.40
2018-08-10T03:33:07.493Z,17.10
2018-08-10T03:35:42.306Z,17.10
2018-08-10T03:38:17.006Z,16.80
2018-08-10T03:40:51.959Z,17.10
2018-08-10T03:43:26.787Z,17.20
2018-08-10T03:46:01.673Z,16.90
2018-08-10T03:48:36.498Z,17.10
2018-08-10T03:51:11.491Z,17.20
2018-08-10T03:53:46.203Z,17.10
2018-08-10T03:56:21.639Z,17.10
2018-08-10T03:58:56.621Z,16.90
2018-08-10T04:01:31.533Z,16.70
2018-08-10T04:04:06.682Z,16.90
2018-08-10T04:06:41.609Z,16.70
2018-08-10T04:09:16.234Z,16.60
2018-08-10T04:11:51.435Z,16.30
2018-08-10T04:14:26.322Z,16.60
2018-08-10T04:17:01.170Z,16.70
2018-08-10T04:19:35.898Z,16.80
2018-08-10T04:22:10.893Z,16.70
2018-08-10T04:24:45.782Z,16.60
2018-08-10T04:27:21.433Z,16.70
2018-08-10T04:29:56.096Z,16.80
2018-08-10T04:32:31.687Z,16.20
2018-08-10T04:35:07.006Z,16.40
2018-08-10T04:37:42.207Z,16.50
2018-08-10T04:40:18.155Z,16.30
2018-08-10T04:42:54.239Z,16.30
2018-08-10T04:45:29.567Z,16.60
2018-08-10T04:48:04.731Z,16.80
2018-08-10T04:50:40.094Z,16.80
2018-08-10T04:53:15.240Z,16.80
2018-08-10T04:55:50.212Z,16.90
2018-08-10T04:58:25.329Z,16.90
2018-08-10T05:01:00.515Z,16.70
2018-08-10T05:03:35.124Z,16.70
2018-08-10T05:06:10.078Z,16.80
2018-08-10T05:08:44.872Z,16.70
2018-08-10T05:11:21.574Z,16.60
2018-08-10T05:13:56.449Z,16.60
2018-08-10T05:16:31.101Z,16.70
2018-08-10T05:19:05.874Z,16.40
2018-08-10T05:21:40.997Z,16.10
2018-08-10T05:24:15.930Z,16.30
2018-08-10T05:26:51.151Z,16.60
2018-08-10T05:29:26.204Z,16.60
2018-08-10T05:32:01.326Z,16.80
2018-08-10T05:34:36.435Z,16.90
2018-08-10T05:37:11.653Z,17.10
2018-08-10T05:39:46.916Z,16.60
2018-08-10T05:42:22.100Z,16.80
2018-08-10T05:44:56.868Z,16.90
2018-08-10T05:47:31.933Z,16.50
2018-08-10T05:50:06.939Z,16.70
2018-08-10T05:52:41.831Z,16.60
2018-08-10T05:55:17.145Z,16.70
2018-08-10T05:57:58.803Z,16.40
2018-08-10T06:00:34.037Z,16.60
2018-08-10T06:03:08.951Z,16.70
2018-08-10T06:05:44.038Z,16.80
2018-08-10T06:08:18.803Z,16.80
2018-08-10T06:10:53.717Z,16.70
2018-08-10T06:13:29.077Z,16.60
2018-08-10T06:16:04.425Z,16.60
2018-08-10T06:18:39.138Z,16.70
2018-08-10T06:21:14.675Z,16.70
2018-08-10T06:23:50.089Z,16.80
2018-08-10T06:26:25.678Z,16.80
2018-08-10T06:29:00.613Z,16.70
2018-08-10T06:31:35.472Z,16.60
2018-08-10T06:34:11.584Z,16.40
2018-08-10T06:36:46.553Z,16.60
2018-08-10T06:39:21.505Z,16.40
2018-08-10T06:41:56.126Z,16.60
2018-08-10T06:44:31.130Z,16.60
2018-08-10T06:47:06.395Z,16.80
2018-08-10T06:49:41.382Z,16.80
2018-08-10T06:52:16.122Z,17.00
2018-08-10T06:54:51.220Z,17.10
2018-08-10T06:57:26.204Z,17.10
2018-08-10T07:00:01.241Z,17.30
2018-08-10T07:02:36.256Z,17.50
2018-08-10T07:05:11.432Z,17.60
2018-08-10T07:07:46.811Z,17.70
2018-08-10T07:10:21.868Z,17.50
2018-08-10T07:12:56.874Z,17.70
2018-08-10T07:15:32.085Z,17.70
2018-08-10T07:18:07.045Z,17.80
2018-08-10T07:20:42.202Z,17.50
2018-08-10T07:23:16.829Z,18.00
2018-08-10T07:25:51.509Z,18.20
2018-08-10T07:28:26.341Z,18.10
2018-08-10T07:31:01.137Z,18.40
2018-08-10T07:33:36.008Z,18.40
2018-08-10T07:36:10.901Z,18.50
2018-08-10T07:38:46.367Z,18.40
2018-08-10T07:41:21.121Z,18.40
2018-08-10T07:43:55.916Z,18.20
2018-08-10T07:46:30.959Z,18.10
2018-08-10T07:49:06.590Z,18.60
2018-08-10T07:51:41.917Z,18.90
2018-08-10T07:54:17.394Z,19.00
2018-08-10T07:56:53.262Z,19.30
2018-08-10T07:59:28.861Z,19.50
2018-08-10T08:02:04.435Z,20.10
2018-08-10T08:04:39.705Z,19.30
2018-08-10T08:07:15.168Z,19.30
2018-08-10T08:09:50.634Z,18.50
2018-08-10T08:12:25.797Z,18.00
2018-08-10T08:15:01.305Z,18.30
2018-08-10T08:17:36.711Z,18.70
2018-08-10T08:20:11.858Z,19.00
2018-08-10T08:22:47.296Z,19.80
2018-08-10T08:25:23.233Z,20.30
2018-08-10T08:27:58.842Z,20.40
2018-08-10T08:30:34.219Z,20.60
2018-08-10T08:33:10.099Z,20.60
2018-08-10T08:35:46.362Z,20.60
2018-08-10T08:38:32.865Z,20.30
2018-08-10T08:41:09.625Z,20.60
2018-08-10T08:46:00.291Z,20.90
2018-08-10T08:48:37.926Z,21.30
2018-08-10T08:51:19.569Z,21.00
2018-08-10T08:54:09.842Z,20.50
2018-08-10T08:56:45.328Z,20.20
2018-08-10T08:59:21.259Z,20.80
2018-08-10T09:01:56.822Z,20.20
2018-08-10T09:04:45.105Z,21.00
2018-08-10T09:07:21.153Z,21.10
2018-08-10T09:09:57.278Z,21.20
2018-08-10T09:12:32.773Z,21.50
2018-08-10T09:15:10.344Z,21.90
2018-08-10T09:17:46.140Z,22.50
2018-08-10T09:20:22.471Z,22.70
2018-08-10T09:22:58.464Z,23.40
2018-08-10T09:25:34.041Z,23.50
2018-08-10T09:28:09.806Z,24.70
2018-08-10T09:30:45.533Z,24.60
2018-08-10T09:33:21.254Z,24.40
2018-08-10T09:35:56.758Z,24.90
2018-08-10T09:38:32.204Z,24.80
2018-08-10T09:41:07.743Z,25.50
2018-08-10T09:43:43.441Z,25.30
2018-08-10T09:46:18.991Z,25.90
2018-08-10T09:48:54.381Z,26.30
2018-08-10T09:51:30.118Z,26.50
2018-08-10T09:54:05.142Z,26.80
2018-08-10T09:56:40.838Z,27.00
2018-08-10T09:59:15.953Z,27.60
2018-08-10T10:01:56.631Z,27.00
2018-08-10T10:04:32.007Z,26.40
2018-08-10T10:07:06.985Z,27.60
2018-08-10T10:09:42.539Z,26.50
2018-08-10T10:12:17.705Z,26.80
2018-08-10T10:14:53.518Z,26.80
2018-08-10T10:17:28.652Z,26.10
2018-08-10T10:20:05.018Z,27.50
2018-08-10T10:22:40.554Z,28.30
2018-08-10T10:25:15.925Z,28.90
2018-08-10T10:27:51.292Z,28.50
2018-08-10T10:30:26.827Z,27.40
2018-08-10T10:33:02.082Z,28.40
2018-08-10T10:35:37.341Z,27.80
2018-08-10T10:38:12.846Z,28.60
2018-08-10T10:40:47.957Z,30.10
2018-08-10T10:43:23.122Z,29.80
2018-08-10T10:45:58.328Z,30.90
2018-08-10T10:48:33.957Z,31.10
2018-08-10T10:51:09.137Z,30.90
2018-08-10T10:53:44.689Z,31.40
2018-08-10T10:56:19.940Z,31.40
2018-08-10T10:58:55.041Z,30.10
2018-08-10T11:01:30.447Z,31.70
2018-08-10T11:04:05.693Z,31.90
2018-08-10T11:06:40.809Z,31.60
2018-08-10T11:09:16.100Z,31.50
2018-08-10T11:11:51.078Z,31.60
2018-08-10T11:14:26.421Z,31.60
2018-08-10T11:17:01.865Z,31.70
2018-08-10T11:19:36.870Z,29.80
2018-08-10T11:22:11.843Z,28.60
2018-08-10T11:24:47.429Z,27.60
2018-08-10T11:27:22.446Z,27.90
2018-08-10T11:29:57.509Z,27.80
2018-08-10T11:32:32.718Z,27.60
2018-08-10T11:35:08.369Z,26.80
2018-08-10T11:37:43.891Z,25.70
2018-08-10T11:40:19.222Z,26.30
2018-08-10T11:42:54.611Z,26.30
2018-08-10T11:45:29.929Z,26.00
2018-08-10T11:48:05.497Z,24.60
2018-08-10T11:50:40.925Z,25.10
2018-08-10T11:53:16.986Z,25.10
2018-08-10T11:55:52.561Z,25.00
2018-08-10T11:58:28.154Z,24.50
2018-08-10T12:01:03.576Z,24.50
2018-08-10T12:03:46.459Z,24.50
2018-08-10T12:06:21.781Z,24.40
2018-08-10T12:08:57.194Z,25.10
2018-08-10T12:11:32.870Z,25.00
2018-08-10T12:14:08.314Z,25.30
2018-08-10T12:16:43.821Z,25.60
2018-08-10T12:19:51.884Z,26.00
2018-08-10T12:22:26.967Z,26.80
2018-08-10T12:25:02.434Z,27.50
2018-08-10T12:27:37.447Z,28.50
2018-08-10T12:30:14.038Z,27.20
2018-08-10T12:32:49.071Z,26.90
2018-08-10T12:35:24.234Z,27.30
2018-08-10T12:37:59.676Z,26.70
2018-08-10T12:40:35.165Z,26.40
2018-08-10T12:43:10.450Z,26.10
2018-08-10T12:45:46.370Z,26.50
2018-08-10T12:48:21.810Z,26.40
2018-08-10T12:50:57.135Z,25.90
2018-08-10T12:53:32.846Z,26.20
2018-08-10T12:56:08.165Z,26.20
2018-08-10T12:58:43.796Z,25.90
2018-08-10T13:01:19.188Z,25.20
2018-08-10T13:03:55.745Z,25.30
2018-08-10T13:06:31.652Z,25.70
2018-08-10T13:09:10.760Z,25.10
2018-08-10T13:11:46.434Z,25.30
2018-08-10T13:14:22.753Z,24.50
2018-08-10T13:16:58.241Z,24.80
2018-08-10T13:19:33.730Z,24.80
2018-08-10T13:22:09.221Z,24.90
2018-08-10T13:24:44.978Z,25.00
2018-08-10T13:27:21.166Z,24.80
2018-08-10T13:29:57.392Z,24.90
2018-08-10T13:32:33.404Z,24.60
2018-08-10T13:35:08.960Z,24.70
2018-08-10T13:37:44.770Z,24.70
2018-08-10T13:40:20.389Z,24.70
2018-08-10T13:42:55.598Z,24.60
2018-08-10T13:45:31.222Z,24.60
2018-08-10T13:48:07.187Z,24.70
2018-08-10T13:50:43.129Z,24.60
2018-08-10T13:53:18.695Z,24.40
2018-08-10T13:55:54.163Z,24.60
2018-08-10T13:58:29.812Z,24.80
2018-08-10T14:01:05.153Z,25.70
2018-08-10T14:03:40.736Z,27.50
2018-08-10T14:06:15.869Z,29.10
2018-08-10T14:08:51.320Z,29.30
2018-08-10T14:11:26.261Z,28.40
2018-08-10T14:14:02.355Z,26.60
2018-08-10T14:16:37.449Z,26.70
2018-08-10T14:19:14.570Z,27.20
2018-08-10T14:21:50.202Z,27.40
2018-08-10T14:24:25.463Z,26.40
2018-08-10T14:27:00.546Z,25.90
2018-08-10T14:29:35.657Z,27.30
2018-08-10T14:32:10.893Z,27.30
2018-08-10T14:34:45.977Z,27.10
2018-08-10T14:37:21.462Z,26.70
2018-08-10T14:39:57.028Z,26.50
2018-08-10T14:42:32.213Z,27.30
2018-08-10T14:45:12.789Z,27.10
2018-08-10T14:47:48.549Z,28.20
2018-08-10T14:50:23.713Z,29.20
2018-08-10T14:52:59.425Z,30.00
2018-08-10T14:55:34.547Z,30.40
2018-08-10T14:58:09.821Z,30.80
2018-08-10T15:00:45.113Z,30.70
2018-08-10T15:03:21.479Z,30.70
2018-08-10T15:05:56.893Z,31.20
2018-08-10T15:08:32.556Z,30.80
2018-08-10T15:11:08.357Z,29.50
2018-08-10T15:13:49.943Z,29.00
2018-08-10T15:16:25.511Z,30.30
2018-08-10T15:19:00.731Z,30.30
2018-08-10T15:21:35.982Z,29.70
2018-08-10T15:24:11.905Z,29.20
2018-08-10T15:26:47.441Z,29.90
2018-08-10T15:29:22.861Z,29.50
2018-08-10T15:31:58.104Z,29.70
2018-08-10T15:34:33.166Z,30.70
2018-08-10T15:37:08.518Z,31.60
2018-08-10T15:39:43.563Z,31.20
2018-08-10T15:42:19.321Z,31.90
2018-08-10T15:44:54.936Z,31.70
2018-08-10T15:47:30.407Z,31.40
2018-08-10T15:50:06.450Z,31.30
2018-08-10T15:52:43.081Z,31.40
2018-08-10T15:55:18.822Z,31.40
2018-08-10T15:57:54.056Z,31.90
2018-08-10T16:00:29.303Z,31.80
2018-08-10T16:03:04.510Z,30.70
2018-08-10T16:05:39.676Z,29.70
2018-08-10T16:08:14.755Z,28.90
2018-08-10T16:10:49.854Z,28.10
2018-08-10T16:13:24.912Z,28.10
2018-08-10T16:16:00.272Z,28.10
2018-08-10T16:18:35.702Z,27.90
2018-08-10T16:21:11.359Z,27.90
2018-08-10T16:23:46.500Z,28.20
2018-08-10T16:26:21.806Z,28.10
2018-08-10T16:28:57.050Z,27.90
2018-08-10T16:31:32.397Z,27.70
2018-08-10T16:34:08.551Z,27.80
2018-08-10T16:36:43.560Z,28.00
2018-08-10T16:39:18.771Z,28.10
2018-08-10T16:41:53.908Z,28.40
2018-08-10T16:44:28.983Z,28.30
2018-08-10T16:47:04.857Z,28.40
2018-08-10T16:49:40.281Z,27.80
2018-08-10T16:52:15.906Z,27.50
2018-08-10T16:54:51.134Z,27.80
2018-08-10T16:57:25.998Z,28.00
2018-08-10T17:00:01.169Z,28.10
2018-08-10T17:02:36.470Z,27.60
2018-08-10T17:05:11.389Z,27.10
2018-08-10T17:07:46.818Z,26.50
2018-08-10T17:10:22.238Z,26.10
2018-08-10T17:12:57.838Z,25.70
2018-08-10T17:15:33.500Z,25.50
2018-08-10T17:18:09.323Z,25.20
2018-08-10T17:20:44.598Z,24.90
2018-08-10T17:23:20.617Z,24.80
2018-08-10T17:25:56.331Z,24.90
2018-08-10T17:28:31.961Z,25.30
2018-08-10T17:31:07.911Z,25.40
2018-08-10T17:33:43.314Z,25.50
2018-08-10T17:36:18.891Z,25.50
2018-08-10T17:38:54.491Z,25.40
2018-08-10T17:41:30.137Z,25.30
2018-08-10T17:44:05.856Z,25.10
2018-08-10T17:46:41.984Z,25.00
2018-08-10T17:49:17.530Z,24.80
2018-08-10T17:51:52.957Z,24.50
2018-08-10T17:54:28.485Z,24.20
2018-08-10T17:57:04.138Z,23.90
2018-08-10T17:59:39.436Z,23.70
2018-08-10T18:02:15.269Z,23.50
2018-08-10T18:04:50.813Z,23.40
2018-08-10T18:07:26.206Z,23.20
2018-08-10T18:10:01.801Z,23.20
2018-08-10T18:12:38.610Z,23.00
2018-08-10T18:15:15.222Z,22.70
2018-08-10T18:17:51.059Z,22.60
2018-08-10T18:20:26.395Z,22.50
2018-08-10T18:23:02.202Z,22.30
2018-08-10T18:25:37.484Z,22.20
2018-08-10T18:28:13.284Z,21.90
2018-08-10T18:30:49.199Z,21.80
2018-08-10T18:33:25.239Z,21.70
2018-08-10T18:36:05.872Z,21.60
2018-08-10T18:38:41.486Z,21.50
2018-08-10T18:41:17.137Z,21.40
2018-08-10T18:43:52.566Z,21.30
2018-08-10T18:46:28.112Z,21.20
2018-08-10T18:49:03.543Z,21.10
2018-08-10T18:51:39.818Z,21.00
2018-08-10T18:54:15.425Z,20.90
2018-08-10T18:56:51.377Z,20.80
2018-08-10T18:59:27.130Z,20.70
2018-08-10T19:02:02.634Z,20.50
2018-08-10T19:04:38.397Z,20.40
2018-08-10T19:07:13.795Z,20.30
2018-08-10T19:09:49.789Z,20.10
2018-08-10T19:12:25.541Z,20.10
2018-08-10T19:15:01.377Z,20.20
2018-08-10T19:17:37.133Z,19.80
2018-08-10T19:20:13.822Z,19.80
2018-08-10T19:22:49.463Z,19.70
2018-08-10T19:25:24.815Z,19.70
2018-08-10T19:28:00.712Z,19.60
2018-08-10T19:30:36.125Z,19.60
2018-08-10T19:33:11.865Z,19.50
2018-08-10T19:35:47.599Z,19.40
2018-08-10T19:38:24.173Z,19.50
2018-08-10T19:40:59.750Z,19.40
2018-08-10T19:43:34.730Z,19.10
2018-08-10T19:46:09.767Z,19.10
2018-08-10T19:48:44.697Z,18.80
2018-08-10T19:51:19.823Z,18.80
2018-08-10T19:53:55.030Z,18.90
2018-08-10T19:56:31.133Z,18.90
2018-08-10T19:59:07.182Z,18.90
2018-08-10T20:01:42.011Z,19.00
2018-08-10T20:04:17.153Z,18.90
2018-08-10T20:06:52.441Z,18.70
2018-08-10T20:09:27.354Z,18.70
2018-08-10T20:12:02.634Z,18.60
2018-08-10T20:14:38.425Z,18.80
2018-08-10T20:17:13.844Z,18.60
2018-08-10T20:19:49.115Z,18.50
2018-08-10T20:22:24.434Z,18.00
2018-08-10T20:24:59.346Z,18.20
2018-08-10T20:27:34.975Z,18.30
2018-08-10T20:30:13.489Z,18.30
2018-08-10T20:32:49.228Z,18.10
2018-08-10T20:35:23.959Z,18.10
2018-08-10T20:37:58.920Z,18.10
2018-08-10T20:40:34.061Z,18.10
2018-08-10T20:43:08.875Z,18.20
2018-08-10T20:45:43.847Z,18.10
2018-08-10T20:48:19.186Z,18.10
2018-08-10T20:50:54.920Z,18.20
2018-08-10T20:53:30.430Z,18.10
2018-08-10T20:56:05.733Z,18.00
2018-08-10T20:58:40.624Z,18.10
2018-08-10T21:01:16.730Z,17.50
2018-08-10T21:03:51.667Z,17.40
2018-08-10T21:06:26.993Z,17.60
2018-08-10T21:09:01.848Z,17.20
2018-08-10T21:11:37.108Z,17.50
2018-08-10T21:14:11.806Z,17.50
2018-08-10T21:16:46.822Z,17.50
2018-08-10T21:19:22.165Z,17.50
2018-08-10T21:21:57.297Z,17.20
2018-08-10T21:24:32.268Z,17.20
2018-08-10T21:27:07.122Z,17.10
2018-08-10T21:29:42.818Z,17.20
2018-08-10T21:32:17.593Z,16.80
2018-08-10T21:34:52.577Z,16.80
2018-08-10T21:37:27.518Z,16.70
2018-08-10T21:40:03.362Z,16.70
2018-08-10T21:42:38.498Z,16.80
2018-08-10T21:45:13.251Z,16.60
2018-08-10T21:47:48.323Z,16.50
2018-08-10T21:50:23.072Z,16.50
2018-08-10T21:52:58.987Z,16.40
2018-08-10T21:55:34.047Z,16.30
2018-08-10T21:58:09.328Z,16.20
2018-08-10T22:00:51.767Z,16.10
2018-08-10T22:03:27.130Z,16.20
2018-08-10T22:06:02.177Z,16.10
2018-08-10T22:08:37.566Z,16.20
2018-08-10T22:11:12.453Z,16.30
2018-08-10T22:13:53.386Z,16.40
2018-08-10T22:16:33.321Z,16.40
2018-08-10T22:19:15.721Z,16.30
2018-08-10T22:21:50.605Z,16.20
2018-08-10T22:24:25.680Z,16.10
2018-08-10T22:27:00.566Z,16.00
2018-08-10T22:29:35.428Z,15.90
2018-08-10T22:32:10.585Z,15.60
2018-08-10T22:34:45.277Z,15.60
2018-08-10T22:37:20.488Z,15.60
2018-08-10T22:39:55.426Z,15.80
2018-08-10T22:42:30.455Z,15.80
2018-08-10T22:45:06.063Z,15.80
2018-08-10T22:47:41.371Z,15.80
2018-08-10T22:50:16.074Z,15.80
2018-08-10T22:52:51.155Z,15.50
2018-08-10T22:55:26.262Z,15.60
2018-08-10T22:58:01.205Z,15.60
2018-08-10T23:00:36.363Z,15.60
2018-08-10T23:03:11.430Z,15.70
2018-08-10T23:05:46.606Z,15.60
2018-08-10T23:08:21.574Z,15.50
2018-08-10T23:10:56.799Z,15.40
2018-08-10T23:13:32.537Z,15.40
2018-08-10T23:16:13.832Z,15.60
2018-08-10T23:18:48.573Z,15.60
2018-08-10T23:21:24.024Z,15.60
2018-08-10T23:23:59.867Z,15.50
2018-08-10T23:26:34.625Z,15.60
2018-08-10T23:29:09.558Z,15.50
2018-08-10T23:31:44.276Z,15.60
2018-08-10T23:34:19.112Z,15.60
2018-08-10T23:36:54.100Z,15.70
2018-08-10T23:39:29.251Z,15.60
2018-08-10T23:42:04.424Z,15.60
2018-08-10T23:44:39.737Z,15.50
2018-08-10T23:47:14.713Z,15.40
2018-08-10T23:49:49.389Z,15.30
2018-08-10T23:52:24.656Z,15.30
2018-08-10T23:54:59.682Z,15.10
2018-08-10T23:57:34.716Z,15.00
